KDPL

Duplin Co Airport

Kenansville, North Carolina, USA
METAR KDPL 180825Z AUTO 00000KT 10SM OVC034 10/07 A3018 RMK AO2
Observed Flight Rules
Dec-18 @ 08:25 UTC (19 minutes ago) Visual Flight Rules
Wind Visibility Clouds
Calm 10 miles
  • Overcast at 3,400' AGL
Temperatures Readings
Current 10°C / 50°F
Dewpoint 7°C / 45°F
Humidity 82%
Altimeter 30.18" Hg
Pressure 1022 hPa
Elevation 42
METAR KDPL 180825Z AUTO 00000KT 10SM OVC034 10/07 A3018 RMK AO2
Observed Flight Rules
Dec-18 @ 08:25 UTC
(19 minutes ago)
VFR
Wind Visibility
Calm 10 miles
Clouds
  • Overcast at 3,400' AGL
Temperature Dewpoint
10°C / 50°F 7°C / 45°F
Humidity Altimeter Pressure
82% 30.18" Hg 1022 hPa